Time;durP1;ratioP1;P1;durP2;ratioP2;P2;SDS_P1;SDS_P2;PMS_P1;PMS_P2;Temp;Humidity;BMP_temperature;BMP_pressure;BME280_temperature;BME280_humidity;BME280_pressure;Samples;Min_cycle;Max_cycle;Signal;HPM_P1;HPM_P2
2022/10/29 00:01:41;;;;;;;;;;;;;;;13.87;86.10;100832.90;86007;1291;82232;-58
2022/10/29 00:03:48;;;;;;;;;;;;;;;13.87;86.18;100831.27;86020;1291;100049;-58
2022/10/29 00:06:01;;;;;;;;;;;;;;;13.83;86.22;100831.30;86005;1294;89137;-58
2022/10/29 00:08:08;;;;;;;;;;;;;;;13.85;86.12;100828.13;86024;1297;92773;-59
2022/10/29 00:10:18;;;;;;;;;;;;;;;13.87;86.16;100825.30;86023;1292;81093;-58
2022/10/29 00:12:25;;;;;;;;;;;;;;;13.86;86.10;100825.77;86014;1284;82792;-59
2022/10/29 00:14:32;;;;;;;;;;;;;;;13.84;86.04;100824.31;86017;1298;97458;-59
2022/10/29 00:16:39;;;;;;;;;;;;;;;13.80;85.99;100824.38;86018;1298;87800;-57
2022/10/29 00:18:47;;;;;;;;;;;;;;;13.76;85.99;100819.76;85964;1298;95113;-58
2022/10/29 00:21:03;;;;;;;;;;;;;;;13.76;85.95;100814.78;86022;1297;80921;-58
2022/10/29 00:23:10;;;;;;;;;;;;;;;13.72;85.89;100810.92;86020;1292;80923;-58
2022/10/29 00:25:18;;;;;;;;;;;;;;;13.69;85.91;100810.27;86070;1290;100155;-58
2022/10/29 00:27:25;;;;;;;;;;;;;;;13.62;85.91;100811.10;86035;1291;88675;-59
2022/10/29 00:29:32;;;;;;;;;;;;;;;13.54;85.87;100812.55;86008;1298;93419;-58
2022/10/29 00:31:40;;;;;;;;;;;;;;;13.47;85.92;100813.13;86033;1290;82651;-58
2022/10/29 00:33:47;;;;;;;;;;;;;;;13.42;85.86;100814.60;86010;1292;80782;-58
2022/10/29 00:36:04;;;;;;;;;;;;;;;13.39;85.88;100810.45;86042;1291;98342;-58
2022/10/29 00:38:12;;;;;;;;;;;;;;;13.37;85.80;100808.35;86055;1298;89339;-59
2022/10/29 00:40:21;;;;;;;;;;;;;;;13.35;85.89;100808.95;86017;1298;93116;-58
2022/10/29 00:42:30;;;;;;;;;;;;;;;13.33;85.97;100806.22;85888;1294;82332;-58
2022/10/29 00:44:42;;;;;;;;;;;;;;;13.35;85.95;100808.83;86068;1291;82581;-58
2022/10/29 00:46:52;;;;;;;;;;;;;;;13.37;85.96;100809.09;86030;1298;99909;-58
2022/10/29 00:48:59;;;;;;;;;;;;;;;13.36;85.89;100806.61;86012;1292;87741;-58
2022/10/29 00:51:11;;;;;;;;;;;;;;;13.31;86.01;100806.80;85998;1292;93260;-59
2022/10/29 00:53:21;;;;;;;;;;;;;;;13.30;85.94;100803.54;86005;1298;82218;-58
2022/10/29 00:55:31;;;;;;;;;;;;;;;13.26;85.88;100799.19;86049;1293;82006;-59
2022/10/29 00:57:40;;;;;;;;;;;;;;;13.27;85.93;100800.73;86012;1290;99117;-58
2022/10/29 00:59:48;;;;;;;;;;;;;;;13.25;85.87;100795.68;86019;1291;87472;-57
2022/10/29 01:01:55;;;;;;;;;;;;;;;13.23;85.83;100794.98;85997;1291;94128;-58
2022/10/29 01:04:03;;;;;;;;;;;;;;;13.22;85.79;100790.02;85852;1293;82573;-58
2022/10/29 01:06:13;;;;;;;;;;;;;;;13.21;85.85;100787.20;86039;1297;82140;-58
2022/10/29 01:08:20;;;;;;;;;;;;;;;13.19;85.81;100783.16;86032;1295;99936;-57
2022/10/29 01:10:33;;;;;;;;;;;;;;;13.20;85.74;100783.33;86064;1291;88532;-58
2022/10/29 01:12:59;;;;;;;;;;;;;;;13.21;85.73;100781.91;86006;1297;93441;-58
2022/10/29 01:15:16;;;;;;;;;;;;;;;13.21;85.81;100792.55;86029;1298;81800;-57
2022/10/29 01:17:33;;;;;;;;;;;;;;;13.19;85.78;100790.58;86013;1298;82985;-58
2022/10/29 01:20:10;;;;;;;;;;;;;;;13.20;85.66;100793.48;86024;1290;98699;-59
2022/10/29 01:22:23;;;;;;;;;;;;;;;13.21;85.65;100794.55;86065;1291;89148;-58
2022/10/29 01:25:01;;;;;;;;;;;;;;;13.20;85.55;100793.98;86045;1298;93633;-58
2022/10/29 01:27:45;;;;;;;;;;;;;;;13.16;85.53;100801.87;86003;1291;82037;-58
2022/10/29 01:30:03;;;;;;;;;;;;;;;13.17;85.45;100793.79;86055;1298;82713;-58
2022/10/29 01:32:13;;;;;;;;;;;;;;;13.17;85.40;100798.55;86021;1298;99097;-58
2022/10/29 01:34:25;;;;;;;;;;;;;;;13.14;85.33;100800.77;86054;1295;88898;-58
2022/10/29 01:36:38;;;;;;;;;;;;;;;13.11;85.41;100803.78;85963;1283;95271;-59
2022/10/29 01:38:51;;;;;;;;;;;;;;;13.09;85.37;100800.48;85981;1298;82036;-59
2022/10/29 01:41:07;;;;;;;;;;;;;;;13.10;85.29;100796.10;86032;1298;83941;-58
2022/10/29 01:43:19;;;;;;;;;;;;;;;13.10;85.23;100797.19;85990;1290;99695;-58
2022/10/29 01:45:30;;;;;;;;;;;;;;;13.10;85.14;100791.89;86029;1291;86870;-58
2022/10/29 01:47:40;;;;;;;;;;;;;;;13.06;85.25;100792.23;85996;1291;94199;-58
2022/10/29 01:49:51;;;;;;;;;;;;;;;13.06;85.12;100793.98;85987;1298;80834;-59
2022/10/29 01:52:01;;;;;;;;;;;;;;;13.03;85.13;100791.63;86015;1295;82804;-58
2022/10/29 01:54:11;;;;;;;;;;;;;;;13.05;85.13;100790.73;86027;1292;99475;-58
2022/10/29 01:56:20;;;;;;;;;;;;;;;13.03;85.11;100792.79;86005;1291;89025;-58
2022/10/29 01:58:27;;;;;;;;;;;;;;;12.98;85.06;100785.23;85992;1298;94516;-58
2022/10/29 02:00:47;;;;;;;;;;;;;;;12.95;85.06;100784.52;86013;1290;82268;-59
2022/10/29 02:03:12;;;;;;;;;;;;;;;12.89;84.99;100782.73;86013;1294;83054;-58
2022/10/29 02:05:28;;;;;;;;;;;;;;;12.82;85.02;100779.10;86018;1298;97443;-59
2022/10/29 02:07:45;;;;;;;;;;;;;;;12.81;84.99;100778.04;85899;1293;90366;-59
2022/10/29 02:09:57;;;;;;;;;;;;;;;12.81;85.03;100774.03;86020;1290;94569;-58
2022/10/29 02:12:11;;;;;;;;;;;;;;;12.81;85.04;100773.99;86039;1291;82417;-59
2022/10/29 02:14:23;;;;;;;;;;;;;;;12.80;85.04;100774.15;86056;1298;82388;-58
2022/10/29 02:16:30;;;;;;;;;;;;;;;12.78;85.04;100771.17;86024;1291;99904;-58
2022/10/29 02:18:43;;;;;;;;;;;;;;;12.76;84.94;100771.31;86020;1294;87349;-58
2022/10/29 02:20:50;;;;;;;;;;;;;;;12.74;85.01;100769.77;86011;1297;93325;-58
2022/10/29 02:22:58;;;;;;;;;;;;;;;12.71;84.99;100767.02;85978;1297;81127;-58
2022/10/29 02:25:09;;;;;;;;;;;;;;;12.66;84.98;100765.04;86040;1291;82441;-59
2022/10/29 02:27:17;;;;;;;;;;;;;;;12.61;84.90;100761.25;86006;1297;99605;-58
2022/10/29 02:29:25;;;;;;;;;;;;;;;12.60;85.03;100756.33;86031;1290;88569;-58
2022/10/29 02:31:32;;;;;;;;;;;;;;;12.59;84.98;100749.09;85992;1290;94296;-58
2022/10/29 02:33:41;;;;;;;;;;;;;;;12.58;85.04;100743.25;85994;1290;82227;-58
2022/10/29 02:35:52;;;;;;;;;;;;;;;12.59;84.98;100740.63;86003;1297;83108;-58
2022/10/29 02:37:58;;;;;;;;;;;;;;;12.59;85.05;100736.41;85983;1291;97925;-58
2022/10/29 02:40:08;;;;;;;;;;;;;;;12.59;85.18;100733.54;86024;1298;86472;-58
2022/10/29 02:42:15;;;;;;;;;;;;;;;12.58;85.14;100732.06;86042;1298;95671;-58
2022/10/29 02:44:22;;;;;;;;;;;;;;;12.55;85.13;100733.10;86002;1284;80376;-58
2022/10/29 02:46:30;;;;;;;;;;;;;;;12.55;85.09;100729.17;86012;1298;82157;-59
2022/10/29 02:48:40;;;;;;;;;;;;;;;12.57;85.11;100733.15;86018;1291;98524;-59
2022/10/29 02:50:46;;;;;;;;;;;;;;;12.56;85.17;100729.93;85883;1294;87019;-58
2022/10/29 02:52:53;;;;;;;;;;;;;;;12.57;85.10;100728.02;86018;1290;95454;-57
2022/10/29 02:55:00;;;;;;;;;;;;;;;12.57;85.14;100727.86;86018;1284;81671;-58
2022/10/29 02:57:07;;;;;;;;;;;;;;;12.54;85.10;100721.84;85997;1285;82603;-58
2022/10/29 02:59:15;;;;;;;;;;;;;;;12.54;85.08;100720.81;86016;1290;99097;-57
2022/10/29 03:01:22;;;;;;;;;;;;;;;12.56;85.10;100717.91;86018;1291;88329;-59
2022/10/29 03:03:29;;;;;;;;;;;;;;;12.54;85.11;100716.27;85997;1298;95336;-59
2022/10/29 03:05:38;;;;;;;;;;;;;;;12.56;85.17;100711.13;86011;1298;82155;-58
2022/10/29 03:07:47;;;;;;;;;;;;;;;12.59;85.00;100714.65;86006;1291;79715;-59
2022/10/29 03:09:55;;;;;;;;;;;;;;;12.54;85.10;100712.52;86005;1291;99652;-58
2022/10/29 03:12:02;;;;;;;;;;;;;;;12.55;85.03;100712.08;86024;1291;88493;-58
2022/10/29 03:14:10;;;;;;;;;;;;;;;12.54;85.05;100709.07;85998;1284;95019;-58
2022/10/29 03:16:17;;;;;;;;;;;;;;;12.53;85.09;100707.30;85994;1298;82103;-58
2022/10/29 03:18:24;;;;;;;;;;;;;;;12.54;85.03;100704.42;86019;1292;80224;-58
2022/10/29 03:20:33;;;;;;;;;;;;;;;12.55;85.06;100701.20;85927;1292;99931;-58
2022/10/29 03:22:40;;;;;;;;;;;;;;;12.58;85.02;100700.26;85958;1285;88970;-58
2022/10/29 03:24:50;;;;;;;;;;;;;;;12.61;84.96;100698.27;85932;1299;95513;-58
2022/10/29 03:26:58;;;;;;;;;;;;;;;12.60;85.14;100701.99;85989;1299;80821;-58
2022/10/29 03:29:06;;;;;;;;;;;;;;;12.64;85.05;100698.23;85992;1299;79776;-58
2022/10/29 03:31:14;;;;;;;;;;;;;;;12.65;85.09;100698.58;85967;1296;99395;-58
2022/10/29 03:33:21;;;;;;;;;;;;;;;12.70;84.98;100693.69;85976;1299;89150;-59
2022/10/29 03:35:29;;;;;;;;;;;;;;;12.74;85.05;100692.06;85960;1294;96581;-58
2022/10/29 03:37:36;;;;;;;;;;;;;;;12.77;84.97;100690.79;85967;1293;80521;-58
2022/10/29 03:39:45;;;;;;;;;;;;;;;12.79;84.89;100688.52;86004;1299;81607;-58
2022/10/29 03:41:52;;;;;;;;;;;;;;;12.81;84.94;100689.48;85942;1300;98076;-58
2022/10/29 03:44:02;;;;;;;;;;;;;;;12.81;84.92;100692.29;85987;1297;87235;-58
2022/10/29 03:46:10;;;;;;;;;;;;;;;12.84;84.88;100688.39;85965;1299;94427;-60
2022/10/29 03:48:18;;;;;;;;;;;;;;;12.85;84.77;100688.23;85950;1299;82312;-58
2022/10/29 03:50:28;;;;;;;;;;;;;;;12.82;84.85;100696.00;85853;1301;80302;-57
2022/10/29 03:52:35;;;;;;;;;;;;;;;12.83;84.79;100695.38;85935;1299;100275;-58
2022/10/29 03:54:42;;;;;;;;;;;;;;;12.81;84.71;100700.34;85979;1301;89123;-60
2022/10/29 03:56:50;;;;;;;;;;;;;;;12.80;84.73;100708.41;85973;1300;94776;-58
2022/10/29 03:58:57;;;;;;;;;;;;;;;12.78;84.58;100712.45;85948;1299;82240;-54
2022/10/29 04:01:06;;;;;;;;;;;;;;;12.78;84.65;100711.02;85970;1298;83738;-58
2022/10/29 04:03:14;;;;;;;;;;;;;;;12.80;84.66;100709.70;85839;1301;98657;-58
2022/10/29 04:05:21;;;;;;;;;;;;;;;12.80;84.58;100709.00;85985;1294;87172;-58
2022/10/29 04:07:31;;;;;;;;;;;;;;;12.77;84.61;100708.31;85960;1291;95693;-58
2022/10/29 04:09:38;;;;;;;;;;;;;;;12.73;84.57;100703.92;85932;1293;80853;-58
2022/10/29 04:11:45;;;;;;;;;;;;;;;12.71;84.66;100705.05;85995;1293;81754;-59
2022/10/29 04:13:55;;;;;;;;;;;;;;;12.72;84.63;100706.38;85943;1300;97913;-59
2022/10/29 04:16:01;;;;;;;;;;;;;;;12.72;84.56;100703.80;85968;1299;88943;-59
2022/10/29 04:18:09;;;;;;;;;;;;;;;12.73;84.58;100694.64;85940;1293;95434;-58
2022/10/29 04:20:20;;;;;;;;;;;;;;;12.74;84.48;100693.27;86051;1290;81075;-59
2022/10/29 04:22:27;;;;;;;;;;;;;;;12.78;84.46;100690.21;86026;1290;82224;-59
2022/10/29 04:24:34;;;;;;;;;;;;;;;12.79;84.51;100688.00;86010;1291;97429;-58
2022/10/29 04:26:44;;;;;;;;;;;;;;;12.77;84.49;100685.46;85860;1293;90860;-58
2022/10/29 04:28:52;;;;;;;;;;;;;;;12.78;84.55;100684.63;86033;1291;92709;-59
2022/10/29 04:31:06;;;;;;;;;;;;;;;12.81;84.55;100680.48;86037;1298;81626;-58
2022/10/29 04:33:13;;;;;;;;;;;;;;;12.84;84.47;100683.60;86072;1291;81161;-58
2022/10/29 04:35:20;;;;;;;;;;;;;;;12.86;84.41;100683.02;86014;1290;98710;-58
2022/10/29 04:37:29;;;;;;;;;;;;;;;12.87;84.46;100682.66;86019;1291;88665;-57
2022/10/29 04:39:36;;;;;;;;;;;;;;;12.90;84.26;100683.09;86028;1298;95961;-57
2022/10/29 04:41:44;;;;;;;;;;;;;;;12.88;84.45;100684.75;85973;1291;80961;-57
2022/10/29 04:43:51;;;;;;;;;;;;;;;12.89;84.44;100684.83;86007;1291;79143;-58
2022/10/29 04:45:59;;;;;;;;;;;;;;;12.88;84.39;100690.84;86020;1290;97218;-58
2022/10/29 04:48:08;;;;;;;;;;;;;;;12.88;84.42;100690.88;86035;1298;88530;-58
2022/10/29 04:50:19;;;;;;;;;;;;;;;12.88;84.39;100691.59;86025;1290;95879;-58
2022/10/29 04:52:26;;;;;;;;;;;;;;;12.89;84.34;100689.46;86012;1298;80244;-58
2022/10/29 04:54:33;;;;;;;;;;;;;;;12.87;84.37;100685.07;86040;1290;83388;-58
2022/10/29 04:56:40;;;;;;;;;;;;;;;12.88;84.45;100685.91;86010;1297;99805;-58
2022/10/29 04:58:50;;;;;;;;;;;;;;;12.88;84.34;100684.53;85863;1301;88556;-59
2022/10/29 05:01:03;;;;;;;;;;;;;;;12.89;84.31;100678.32;85896;1293;95970;-58
2022/10/29 05:03:11;;;;;;;;;;;;;;;12.89;84.21;100683.20;86035;1277;82120;-58
2022/10/29 05:05:20;;;;;;;;;;;;;;;12.88;84.27;100687.48;86017;1291;83258;-59
2022/10/29 05:07:27;;;;;;;;;;;;;;;12.87;84.31;100688.95;86063;1291;98461;-59
2022/10/29 05:09:34;;;;;;;;;;;;;;;12.84;84.23;100698.68;86072;1291;87453;-58
2022/10/29 05:11:41;;;;;;;;;;;;;;;12.82;84.21;100698.55;86058;1291;93387;-58
2022/10/29 05:13:48;;;;;;;;;;;;;;;12.82;84.24;100697.71;85913;1297;80491;-58
2022/10/29 05:15:55;;;;;;;;;;;;;;;12.79;84.23;100706.70;86013;1297;82260;-58
2022/10/29 05:18:02;;;;;;;;;;;;;;;12.76;84.23;100716.80;85873;1294;98625;-56
2022/10/29 05:20:11;;;;;;;;;;;;;;;12.75;84.25;100710.80;86029;1290;88547;-58
2022/10/29 05:22:20;;;;;;;;;;;;;;;12.75;84.33;100708.15;86008;1297;95270;-58
2022/10/29 05:24:27;;;;;;;;;;;;;;;12.73;84.32;100719.23;86044;1297;78931;-58
2022/10/29 05:26:38;;;;;;;;;;;;;;;12.70;84.28;100725.27;86024;1298;83087;-59
2022/10/29 05:28:48;;;;;;;;;;;;;;;12.68;84.44;100730.55;86001;1291;96918;-59
2022/10/29 05:31:00;;;;;;;;;;;;;;;12.66;84.39;100726.14;86077;1290;88419;-58
2022/10/29 05:33:11;;;;;;;;;;;;;;;12.64;84.48;100724.40;86032;1290;92593;-58
2022/10/29 05:35:17;;;;;;;;;;;;;;;12.62;84.50;100727.14;86041;1290;78354;-59
2022/10/29 05:37:28;;;;;;;;;;;;;;;12.61;84.58;100722.38;85998;1292;82885;-57
2022/10/29 05:39:34;;;;;;;;;;;;;;;12.59;84.68;100720.86;86026;1291;99842;-58
2022/10/29 05:41:41;;;;;;;;;;;;;;;12.59;84.66;100720.94;86026;1290;87486;-58
2022/10/29 05:43:51;;;;;;;;;;;;;;;12.58;84.76;100721.73;86000;1292;95636;-57
2022/10/29 05:45:58;;;;;;;;;;;;;;;12.57;84.79;100717.94;86040;1290;80109;-59
2022/10/29 05:48:10;;;;;;;;;;;;;;;12.54;84.84;100715.52;86049;1290;82894;-57
2022/10/29 05:50:20;;;;;;;;;;;;;;;12.54;84.86;100721.19;86056;1298;99368;-58
2022/10/29 05:52:28;;;;;;;;;;;;;;;12.53;85.00;100716.67;86004;1291;85855;-59
2022/10/29 05:54:35;;;;;;;;;;;;;;;12.54;84.96;100721.05;86043;1298;95138;-58
2022/10/29 05:56:45;;;;;;;;;;;;;;;12.55;85.04;100710.58;86037;1291;81903;-58
2022/10/29 05:58:52;;;;;;;;;;;;;;;12.58;85.18;100707.27;86044;1292;81300;-59
2022/10/29 06:01:05;;;;;;;;;;;;;;;12.63;85.17;100703.63;86017;1291;99216;-58
2022/10/29 06:03:16;;;;;;;;;;;;;;;12.67;85.36;100703.98;86025;1291;88096;-59
2022/10/29 06:05:23;;;;;;;;;;;;;;;12.71;85.24;100702.58;86018;1292;93776;-59
2022/10/29 06:07:32;;;;;;;;;;;;;;;12.75;85.24;100701.08;86001;1291;82182;-58
2022/10/29 06:09:42;;;;;;;;;;;;;;;12.80;85.19;100702.45;86034;1298;79579;-59
2022/10/29 06:11:52;;;;;;;;;;;;;;;12.83;85.19;100701.81;86033;1291;99497;-59
2022/10/29 06:14:00;;;;;;;;;;;;;;;12.87;85.13;100697.75;86003;1291;88081;-58
2022/10/29 06:16:09;;;;;;;;;;;;;;;12.91;85.14;100694.87;86033;1291;94880;-58
2022/10/29 06:18:17;;;;;;;;;;;;;;;12.94;85.06;100695.89;86023;1298;80762;-59
2022/10/29 06:20:24;;;;;;;;;;;;;;;12.97;84.96;100688.98;86004;1293;81470;-59
2022/10/29 06:22:31;;;;;;;;;;;;;;;12.99;84.96;100685.12;86005;1291;98947;-57
2022/10/29 06:24:38;;;;;;;;;;;;;;;13.02;84.91;100687.13;86005;1285;88351;-58
2022/10/29 06:26:46;;;;;;;;;;;;;;;13.06;84.85;100694.89;86024;1291;94997;-57
2022/10/29 06:28:53;;;;;;;;;;;;;;;13.10;84.63;100702.17;85979;1291;82052;-57
2022/10/29 06:31:00;;;;;;;;;;;;;;;13.15;84.90;100706.91;85991;1291;83322;-58
2022/10/29 06:33:10;;;;;;;;;;;;;;;13.20;84.83;100701.73;86046;1298;98491;-59
2022/10/29 06:35:18;;;;;;;;;;;;;;;13.29;84.80;100704.92;86043;1291;88381;-59
2022/10/29 06:37:25;;;;;;;;;;;;;;;13.40;84.68;100705.03;85735;1295;360919;-59
2022/10/29 06:39:35;;;;;;;;;;;;;;;13.47;84.52;100695.64;86013;1297;81377;-58
2022/10/29 06:41:42;;;;;;;;;;;;;;;13.55;84.48;100696.89;85974;1291;81001;-58
2022/10/29 06:43:50;;;;;;;;;;;;;;;13.64;84.41;100706.86;86040;1297;100331;-58
2022/10/29 06:45:59;;;;;;;;;;;;;;;13.73;84.28;100721.08;86026;1292;88830;-57
2022/10/29 06:48:09;;;;;;;;;;;;;;;13.81;84.31;100729.05;86007;1297;95021;-58
2022/10/29 06:50:20;;;;;;;;;;;;;;;13.97;84.21;100731.58;86048;1291;81817;-59
2022/10/29 06:52:27;;;;;;;;;;;;;;;14.20;83.92;100731.53;86019;1291;82832;-58
2022/10/29 06:54:35;;;;;;;;;;;;;;;14.38;83.86;100736.82;86014;1290;100002;-58
2022/10/29 06:56:42;;;;;;;;;;;;;;;14.60;83.57;100735.54;86056;1291;87897;-57
2022/10/29 06:58:49;;;;;;;;;;;;;;;14.70;83.11;100740.69;86021;1290;93952;-57
2022/10/29 07:00:56;;;;;;;;;;;;;;;14.69;82.46;100735.92;86003;1292;78824;-58
2022/10/29 07:03:06;;;;;;;;;;;;;;;14.70;82.64;100742.41;86042;1298;81910;-58
2022/10/29 07:05:14;;;;;;;;;;;;;;;14.76;82.77;100738.73;86022;1298;99696;-57
2022/10/29 07:07:22;;;;;;;;;;;;;;;14.78;82.55;100738.27;86028;1291;88412;-58
2022/10/29 07:09:30;;;;;;;;;;;;;;;14.85;82.52;100738.23;86018;1297;95770;-57
2022/10/29 07:11:38;;;;;;;;;;;;;;;14.92;82.17;100734.17;86010;1291;80077;-56
2022/10/29 07:13:46;;;;;;;;;;;;;;;14.99;81.81;100735.64;86050;1291;80569;-57
2022/10/29 07:15:52;;;;;;;;;;;;;;;15.03;81.48;100728.89;86035;1298;97660;-58
2022/10/29 07:18:01;;;;;;;;;;;;;;;15.15;81.64;100732.70;86042;1290;88340;-58
2022/10/29 07:20:13;;;;;;;;;;;;;;;15.50;81.50;100725.83;86026;1290;94004;-56
2022/10/29 07:22:21;;;;;;;;;;;;;;;15.80;81.18;100729.48;86036;1290;78500;-57
2022/10/29 07:24:32;;;;;;;;;;;;;;;16.13;80.77;100721.48;86052;1290;83314;-57
2022/10/29 07:26:41;;;;;;;;;;;;;;;16.98;80.50;100725.00;86047;1291;99280;-57
2022/10/29 07:28:48;;;;;;;;;;;;;;;17.88;79.93;100718.71;86040;1291;89402;-58
2022/10/29 07:31:02;;;;;;;;;;;;;;;18.50;78.61;100719.05;86063;1291;93641;-57
2022/10/29 07:33:08;;;;;;;;;;;;;;;19.25;77.78;100717.73;86005;1290;80953;-57
2022/10/29 07:35:16;;;;;;;;;;;;;;;19.92;76.69;100707.56;86024;1292;82333;-57
2022/10/29 07:37:27;;;;;;;;;;;;;;;20.49;75.44;100702.52;86050;1297;101105;-56
2022/10/29 07:39:36;;;;;;;;;;;;;;;21.10;74.51;100711.05;85895;1293;89581;-59
2022/10/29 07:41:43;;;;;;;;;;;;;;;21.61;73.20;100718.09;85976;1294;94678;-57
2022/10/29 07:43:53;;;;;;;;;;;;;;;22.05;71.56;100713.27;85986;1294;79825;-58
2022/10/29 07:46:01;;;;;;;;;;;;;;;22.44;71.05;100709.61;86038;1293;82299;-58
2022/10/29 07:48:10;;;;;;;;;;;;;;;22.72;69.79;100703.98;86020;1293;100095;-59
2022/10/29 07:50:18;;;;;;;;;;;;;;;23.01;68.95;100709.80;86027;1297;88333;-59
2022/10/29 07:52:28;;;;;;;;;;;;;;;22.74;64.88;100706.51;85999;1291;94886;-67
2022/10/29 07:54:37;;;;;;;;;;;;;;;22.25;66.44;100712.44;86031;1301;79970;-66
2022/10/29 07:56:45;;;;;;;;;;;;;;;21.90;66.11;100703.92;86057;1294;81553;-68
2022/10/29 07:58:52;;;;;;;;;;;;;;;21.66;67.04;100705.18;86022;1297;99821;-67
2022/10/29 08:01:00;;;;;;;;;;;;;;;21.39;65.63;100703.48;86051;1299;88882;-60
2022/10/29 08:03:12;;;;;;;;;;;;;;;21.13;67.00;100710.13;85994;1294;95031;-59
2022/10/29 08:05:19;;;;;;;;;;;;;;;20.93;67.37;100707.23;86036;1299;79269;-59
2022/10/29 08:07:28;;;;;;;;;;;;;;;20.69;67.57;100700.73;86032;1294;81080;-61
2022/10/29 08:09:35;;;;;;;;;;;;;;;20.52;67.77;100693.56;86033;1297;100051;-59
2022/10/29 08:11:43;;;;;;;;;;;;;;;20.50;67.11;100689.37;86053;1299;86790;-59
2022/10/29 08:13:51;;;;;;;;;;;;;;;20.22;66.48;100682.23;85829;1294;96582;-60
2022/10/29 08:15:58;;;;;;;;;;;;;;;20.10;67.70;100677.73;86041;1291;80418;-61
2022/10/29 08:18:15;;;;;;;;;;;;;;;20.01;67.73;100683.57;86068;1299;81329;-59
2022/10/29 08:20:27;;;;;;;;;;;;;;;19.85;68.34;100692.52;86056;1297;100068;-60
2022/10/29 08:22:34;;;;;;;;;;;;;;;19.79;68.71;100704.89;86056;1294;88357;-60
2022/10/29 08:24:41;;;;;;;;;;;;;;;19.74;68.99;100714.14;85895;1301;97691;-60
2022/10/29 08:26:49;;;;;;;;;;;;;;;19.62;69.13;100721.30;86004;1297;80888;-62
2022/10/29 08:28:56;;;;;;;;;;;;;;;19.54;69.33;100727.36;86033;1294;82399;-59
2022/10/29 08:31:04;;;;;;;;;;;;;;;19.37;69.30;100724.92;86041;1293;99991;-58
2022/10/29 08:33:12;;;;;;;;;;;;;;;19.30;69.45;100727.48;86008;1301;89325;-58
2022/10/29 08:35:19;;;;;;;;;;;;;;;19.24;69.68;100727.13;86004;1293;94727;-59
2022/10/29 08:37:26;;;;;;;;;;;;;;;19.23;70.09;100728.54;86021;1291;79199;-59
2022/10/29 08:39:34;;;;;;;;;;;;;;;19.21;70.26;100718.95;85996;1294;81082;-58
2022/10/29 08:41:51;;;;;;;;;;;;;;;19.14;69.54;100716.92;85849;1287;97253;-58
2022/10/29 08:44:13;;;;;;;;;;;;;;;18.99;69.56;100725.08;86019;1299;88838;-58
2022/10/29 08:46:25;;;;;;;;;;;;;;;18.93;70.32;100722.48;86018;1293;92580;-59
2022/10/29 08:48:40;;;;;;;;;;;;;;;19.03;70.84;100723.48;86008;1297;79111;-59
2022/10/29 08:50:54;;;;;;;;;;;;;;;19.24;71.13;100720.17;85887;1293;82905;-60
2022/10/29 08:53:04;;;;;;;;;;;;;;;19.51;71.20;100709.38;86033;1292;98986;-58
2022/10/29 08:55:18;;;;;;;;;;;;;;;19.73;71.03;100706.67;86056;1292;86495;-58
2022/10/29 08:57:25;;;;;;;;;;;;;;;19.89;70.97;100704.65;86025;1293;95305;-58
2022/10/29 08:59:35;;;;;;;;;;;;;;;20.03;70.74;100712.30;86031;1298;79862;-59
2022/10/29 09:01:42;;;;;;;;;;;;;;;20.12;70.11;100718.67;86070;1298;83037;-58
2022/10/29 09:03:51;;;;;;;;;;;;;;;20.14;70.09;100727.21;86010;1297;100150;-61
2022/10/29 09:06:08;;;;;;;;;;;;;;;20.19;69.81;100731.65;86047;1297;87557;-59
2022/10/29 09:08:31;;;;;;;;;;;;;;;20.10;69.68;100735.59;86009;1298;93051;-58
2022/10/29 09:10:43;;;;;;;;;;;;;;;19.98;69.72;100733.52;86030;1293;78616;-58
2022/10/29 09:13:07;;;;;;;;;;;;;;;19.86;69.88;100733.81;85906;1300;82202;-59
2022/10/29 09:15:39;;;;;;;;;;;;;;;19.67;69.02;100726.34;86008;1294;99826;-57
2022/10/29 09:17:51;;;;;;;;;;;;;;;19.48;69.54;100729.02;86009;1292;88178;-58
2022/10/29 09:20:23;;;;;;;;;;;;;;;19.42;69.78;100733.94;86019;1297;93587;-58
2022/10/29 09:22:36;;;;;;;;;;;;;;;19.33;70.19;100732.45;86012;1292;78411;-59
2022/10/29 09:24:54;;;;;;;;;;;;;;;19.38;70.48;100728.70;86033;1294;81600;-58
2022/10/29 09:27:12;;;;;;;;;;;;;;;19.47;70.47;100731.37;86001;1290;99884;-58
2022/10/29 09:29:44;;;;;;;;;;;;;;;19.49;70.55;100729.87;86024;1297;88196;-58
2022/10/29 09:31:56;;;;;;;;;;;;;;;19.60;70.53;100723.92;86017;1294;95766;-58
2022/10/29 09:34:10;;;;;;;;;;;;;;;19.60;70.64;100728.09;86023;1294;80179;-58
2022/10/29 09:36:24;;;;;;;;;;;;;;;19.63;70.83;100733.48;86045;1297;81543;-59
2022/10/29 09:38:35;;;;;;;;;;;;;;;19.73;70.58;100731.50;86030;1297;99573;-58
2022/10/29 09:40:44;;;;;;;;;;;;;;;19.77;70.62;100722.55;86089;1297;85605;-58
2022/10/29 09:42:52;;;;;;;;;;;;;;;19.78;70.62;100722.58;86036;1297;93815;-58
2022/10/29 09:45:02;;;;;;;;;;;;;;;19.72;70.61;100723.33;86052;1297;77900;-58
2022/10/29 09:47:19;;;;;;;;;;;;;;;19.70;70.77;100732.70;86034;1298;82816;-58
2022/10/29 09:49:38;;;;;;;;;;;;;;;19.57;70.61;100745.06;86020;1297;99678;-57
2022/10/29 09:51:54;;;;;;;;;;;;;;;19.33;70.64;100752.75;86030;1296;85540;-58
2022/10/29 09:54:06;;;;;;;;;;;;;;;19.12;70.80;100759.70;85864;1287;95522;-58
2022/10/29 09:56:18;;;;;;;;;;;;;;;18.95;71.16;100765.41;85912;1297;82163;-57
2022/10/29 09:58:29;;;;;;;;;;;;;;;18.83;71.15;100764.88;86011;1293;81685;-58
2022/10/29 10:00:38;;;;;;;;;;;;;;;18.67;71.38;100765.34;86042;1297;98860;-59
2022/10/29 10:02:53;;;;;;;;;;;;;;;18.57;71.67;100765.16;86025;1294;88693;-59
2022/10/29 10:05:07;;;;;;;;;;;;;;;18.45;71.84;100768.25;85862;1300;95261;-59
2022/10/29 10:07:20;;;;;;;;;;;;;;;18.26;72.12;100768.16;85971;1301;80778;-59
2022/10/29 10:09:28;;;;;;;;;;;;;;;18.11;72.60;100772.48;86034;1291;82095;-57
2022/10/29 10:11:39;;;;;;;;;;;;;;;18.07;72.68;100771.06;85830;1300;99284;-58
2022/10/29 10:13:57;;;;;;;;;;;;;;;18.04;72.83;100766.21;86015;1288;88918;-57
2022/10/29 10:16:06;;;;;;;;;;;;;;;18.01;72.99;100753.16;86017;1297;93874;-56
2022/10/29 10:18:19;;;;;;;;;;;;;;;17.98;73.14;100743.67;86062;1285;80635;-58
2022/10/29 10:20:35;;;;;;;;;;;;;;;17.99;73.53;100740.91;86029;1294;81643;-58
2022/10/29 10:22:48;;;;;;;;;;;;;;;18.06;73.67;100748.02;85999;1297;98224;-58
2022/10/29 10:24:56;;;;;;;;;;;;;;;18.15;73.81;100761.11;86080;1297;89474;-58
2022/10/29 10:27:23;;;;;;;;;;;;;;;18.03;73.89;100761.42;86042;1292;94859;-57
2022/10/29 10:29:35;;;;;;;;;;;;;;;17.97;74.13;100763.55;86056;1301;80506;-57
2022/10/29 10:31:47;;;;;;;;;;;;;;;17.93;74.20;100765.23;86039;1294;82224;-64
2022/10/29 10:33:55;;;;;;;;;;;;;;;17.91;74.26;100754.23;86044;1297;99929;-62
2022/10/29 10:36:08;;;;;;;;;;;;;;;17.89;74.37;100764.29;86016;1300;88420;-65
2022/10/29 10:38:16;;;;;;;;;;;;;;;17.86;74.54;100769.54;85991;1293;95223;-62
2022/10/29 10:40:25;;;;;;;;;;;;;;;17.77;74.78;100777.21;86023;1299;82383;-62
2022/10/29 10:42:35;;;;;;;;;;;;;;;17.70;74.92;100781.56;85996;1297;82390;-62
2022/10/29 10:44:48;;;;;;;;;;;;;;;17.62;75.15;100777.84;85985;1297;98706;-62
2022/10/29 10:46:58;;;;;;;;;;;;;;;17.70;75.39;100774.86;86006;1294;88958;-60
2022/10/29 10:49:13;;;;;;;;;;;;;;;17.82;75.42;100764.90;85833;1301;93900;-61
2022/10/29 10:51:28;;;;;;;;;;;;;;;17.88;75.39;100766.40;85974;1301;81353;-62
2022/10/29 10:53:35;;;;;;;;;;;;;;;18.00;75.62;100767.14;85987;1297;82541;-62
2022/10/29 10:55:47;;;;;;;;;;;;;;;18.20;75.65;100766.08;86030;1294;98015;-62
2022/10/29 10:57:59;;;;;;;;;;;;;;;18.39;75.73;100765.34;86011;1297;89245;-62
2022/10/29 11:04:15;;;;;;;;;;;;;;;18.89;75.36;100757.75;86004;1298;81135;-61
2022/10/29 11:06:25;;;;;;;;;;;;;;;18.89;74.91;100756.70;85810;1284;82030;-61
2022/10/29 11:08:35;;;;;;;;;;;;;;;18.89;74.93;100750.40;85878;1293;97966;-65
2022/10/29 11:10:51;;;;;;;;;;;;;;;18.86;74.67;100751.33;85885;1299;86536;-61
2022/10/29 11:13:08;;;;;;;;;;;;;;;18.85;74.72;100751.89;85856;1299;94535;-60